Ellenburg Center, NY (12934)

12:39 PM EDT on April 23, 2017 (GMT -0400)
Ellenburg Depot | | Change Station

Elev 1000 ft 44.91 °N, 73.82 °W | Updated 16 seconds ago

Clear
Clear
57.7 °F
Feels Like 57.7 °F
N
10.0
Wind Variable Wind from West
Gusts 15.0 mph

Today
High -- | Low -- °F
--% Chance of Precip.
Yesterday
High -- | Low -- °F
Precip. -- in
Pressure 30.08 in
Visibility 10.0 miles
Clouds Clear
Dew Point 35 °F
Humidity 43%
Rainfall 0.00 in
Snow Depth Not available.
5:57 AM 7:51 PM
Waning Crescent, 11% visible
METAR KPBG 231553Z AUTO 14012KT 10SM CLR 11/02 A3007 RMK AO2 SLP184 T01110017
Pressure 30.08 in
Visibility 10.0 miles
Clouds Clear
Dew Point 35 °F
Humidity 43%
Rainfall 0.00 in
Snow Depth Not available.
5:57 AM 7:51 PM
Waning Crescent, 11% visible
METAR KPBG 231553Z AUTO 14012KT 10SM CLR 11/02 A3007 RMK AO2 SLP184 T01110017

Get Severe Weather Alerts

Thanks for signing up!

Be on the lookout for a verification email in your inbox.

You'll start receiving the daily forecast at 8 AM.

×

10-Day Weather Forecast

Almanac

Astronomy

Apr. 23, 2017 Rise Set
Actual Time
Civil Twilight
Nautical Twilight
Astronomical Twilight
Moon
Length of Visible Light
Length of Day
Tomorrow will be .
, % of the Moon is Illuminated

Today's Extremes

State Highs State Lows

Community

WunderPhotos

WunderBlog® & News

Nearby

Air Quality

  Air Quality AQ Index Pollutant
Not available.

Snow Depth

Station Depth Elevation

Earthquake Activity

City Distance Mag. Time & Date
Minimum magnitude displayed is 2.5.

Coastal Water Temperatures

Place Temperature

Stations

Nearby Weather Stations

Station Location Temp. Windchill Dew Point Humidity Wind Precip. Elev Updated Type
                   

Watches & Warnings

There are currently no watches in effect.